createdAt,value
2018-12-18T00:01:20.156Z,24.57
2018-12-18T00:03:46.518Z,24.83
2018-12-18T00:06:12.799Z,24.67
2018-12-18T00:08:40.641Z,23.87
2018-12-18T00:11:08.889Z,22.63
2018-12-18T00:13:34.982Z,22.33
2018-12-18T00:16:01.320Z,23.17
2018-12-18T00:18:28.264Z,22.80
2018-12-18T00:20:55.427Z,22.40
2018-12-18T00:23:21.579Z,23.03
2018-12-18T00:25:47.869Z,24.80
2018-12-18T00:28:19.510Z,25.23
2018-12-18T00:30:46.923Z,24.33
2018-12-18T00:33:13.082Z,24.90
2018-12-18T00:35:39.250Z,23.87
2018-12-18T00:38:05.553Z,23.90
2018-12-18T00:40:32.888Z,25.20
2018-12-18T00:42:59.067Z,25.07
2018-12-18T00:45:26.306Z,24.40
2018-12-18T00:47:53.389Z,24.93
2018-12-18T00:50:19.785Z,25.37
2018-12-18T00:52:46.003Z,24.00
2018-12-18T00:55:13.294Z,24.40
2018-12-18T00:57:39.399Z,24.87
2018-12-18T01:00:07.403Z,24.43
2018-12-18T01:02:33.682Z,25.43
2018-12-18T01:05:00.005Z,25.37
2018-12-18T01:07:26.446Z,23.23
2018-12-18T01:09:53.627Z,25.20
2018-12-18T01:12:19.783Z,24.50
2018-12-18T01:14:47.746Z,24.67
2018-12-18T01:17:13.978Z,25.40
2018-12-18T01:19:44.787Z,25.77
2018-12-18T01:22:19.146Z,24.80
2018-12-18T01:24:50.387Z,25.83
2018-12-18T01:27:17.782Z,26.50
2018-12-18T01:29:43.956Z,25.47
2018-12-18T01:32:10.227Z,26.47
2018-12-18T01:34:36.427Z,25.07
2018-12-18T01:37:02.763Z,24.90
2018-12-18T01:39:28.982Z,24.70
2018-12-18T01:41:55.243Z,25.50
2018-12-18T01:44:22.471Z,24.67
2018-12-18T01:46:48.461Z,26.10
2018-12-18T01:49:14.630Z,23.83
2018-12-18T01:51:40.810Z,26.57
2018-12-18T01:54:07.117Z,23.57
2018-12-18T01:56:34.434Z,26.03
2018-12-18T01:59:00.766Z,25.13
2018-12-18T02:01:26.943Z,25.00
2018-12-18T02:03:53.184Z,25.80
2018-12-18T02:06:19.483Z,26.13
2018-12-18T02:08:45.686Z,25.30
2018-12-18T02:11:11.733Z,25.63
2018-12-18T02:13:39.924Z,24.47
2018-12-18T02:16:10.065Z,26.03
2018-12-18T02:18:36.738Z,27.33
2018-12-18T02:21:02.934Z,24.53
2018-12-18T02:23:29.359Z,25.27
2018-12-18T02:25:56.559Z,25.10
2018-12-18T02:28:22.702Z,23.80
2018-12-18T02:30:49.015Z,24.30
2018-12-18T02:33:15.338Z,24.90
2018-12-18T02:35:45.360Z,22.70
2018-12-18T02:38:13.655Z,23.80
2018-12-18T02:40:39.952Z,24.27
2018-12-18T02:43:06.341Z,25.20
2018-12-18T02:45:32.502Z,26.07
2018-12-18T02:47:58.602Z,24.33
2018-12-18T02:50:25.469Z,26.87
2018-12-18T02:52:51.625Z,26.67
2018-12-18T02:55:18.843Z,27.60
2018-12-18T02:57:46.125Z,25.97
2018-12-18T03:00:12.340Z,26.90
2018-12-18T03:02:38.444Z,24.77
2018-12-18T03:05:04.792Z,28.40
2018-12-18T03:07:31.037Z,29.40
2018-12-18T03:10:01.496Z,26.83
2018-12-18T03:12:27.673Z,28.20
2018-12-18T03:14:53.954Z,27.93
2018-12-18T03:17:21.207Z,26.53
2018-12-18T03:19:47.481Z,25.73
2018-12-18T03:22:13.774Z,27.73
2018-12-18T03:24:40.071Z,28.07
2018-12-18T03:27:09.438Z,27.90
2018-12-18T03:29:35.722Z,29.30
2018-12-18T03:32:04.066Z,27.37
2018-12-18T03:34:30.241Z,29.23
2018-12-18T03:36:56.293Z,28.30
2018-12-18T03:39:22.529Z,27.97
2018-12-18T03:41:48.765Z,30.13
2018-12-18T03:44:15.001Z,28.77
2018-12-18T03:46:41.344Z,28.83
2018-12-18T03:49:07.401Z,29.80
2018-12-18T03:51:33.443Z,29.67
2018-12-18T03:53:59.562Z,29.03
2018-12-18T03:56:26.736Z,29.90
2018-12-18T03:58:52.815Z,29.70
2018-12-18T04:01:19.197Z,30.40
2018-12-18T04:03:45.403Z,30.97
2018-12-18T04:06:15.340Z,31.03
2018-12-18T04:08:41.809Z,29.20
2018-12-18T04:11:07.966Z,30.73
2018-12-18T04:13:35.651Z,30.80
2018-12-18T04:16:08.430Z,31.60
2018-12-18T04:18:36.044Z,31.47
2018-12-18T04:21:13.874Z,31.10
2018-12-18T04:23:48.023Z,29.50
2018-12-18T04:26:15.479Z,29.40
2018-12-18T04:28:52.509Z,31.57
2018-12-18T04:31:18.726Z,30.43
2018-12-18T04:33:48.223Z,31.33
2018-12-18T04:36:21.281Z,30.63
2018-12-18T04:38:47.546Z,33.07
2018-12-18T04:41:13.574Z,31.20
2018-12-18T04:43:39.754Z,29.70
2018-12-18T04:46:06.051Z,33.57
2018-12-18T04:48:32.186Z,33.40
2018-12-18T04:50:59.514Z,31.70
2018-12-18T04:53:26.177Z,31.30
2018-12-18T04:55:52.258Z,33.27
2018-12-18T04:58:18.504Z,31.30
2018-12-18T05:00:44.866Z,32.53
2018-12-18T05:03:12.068Z,33.17
2018-12-18T05:05:42.340Z,32.57
2018-12-18T05:08:08.571Z,36.80
2018-12-18T05:10:34.769Z,34.63
2018-12-18T05:13:02.123Z,33.63
2018-12-18T05:15:35.026Z,31.47
2018-12-18T05:18:01.331Z,33.50
2018-12-18T05:20:28.615Z,32.13
2018-12-18T05:22:54.790Z,32.37
2018-12-18T05:28:16.275Z,34.27
2018-12-18T05:30:42.503Z,31.80
2018-12-18T05:33:08.803Z,33.70
2018-12-18T05:35:35.037Z,34.13
2018-12-18T05:38:01.247Z,32.60
2018-12-18T05:40:27.455Z,31.60
2018-12-18T05:42:53.987Z,33.70
2018-12-18T05:45:20.170Z,32.23
2018-12-18T05:47:47.523Z,31.10
2018-12-18T05:50:25.759Z,29.23
2018-12-18T05:52:51.950Z,29.03
2018-12-18T05:55:25.734Z,28.67
2018-12-18T05:57:56.896Z,29.73
2018-12-18T06:00:25.225Z,27.20
2018-12-18T06:02:51.497Z,27.63
2018-12-18T06:05:17.715Z,28.03
2018-12-18T06:07:44.097Z,28.20
2018-12-18T06:10:10.524Z,27.53
2018-12-18T06:12:36.636Z,29.17
2018-12-18T06:15:02.876Z,27.20
2018-12-18T06:17:29.087Z,27.70
2018-12-18T06:19:56.260Z,27.60
2018-12-18T06:22:22.554Z,26.80
2018-12-18T06:24:48.771Z,28.10
2018-12-18T06:27:15.018Z,29.20
2018-12-18T06:29:41.373Z,29.30
2018-12-18T06:32:15.130Z,26.83
2018-12-18T06:34:41.357Z,28.60
2018-12-18T06:37:14.735Z,26.93
2018-12-18T06:39:41.870Z,29.87
2018-12-18T06:42:08.097Z,29.00
2018-12-18T06:44:36.257Z,31.07
2018-12-18T06:47:02.628Z,23.27
2018-12-18T06:49:29.104Z,25.07
2018-12-18T06:51:55.283Z,25.82
2018-12-18T06:54:21.570Z,24.23
2018-12-18T06:56:48.425Z,27.33
2018-12-18T06:59:14.906Z,24.73
2018-12-18T07:01:42.131Z,22.77
2018-12-18T07:04:12.980Z,22.30
2018-12-18T07:06:43.299Z,22.17
2018-12-18T07:09:11.789Z,20.40
2018-12-18T07:11:38.132Z,19.62
2018-12-18T07:14:04.410Z,20.90
2018-12-18T07:16:33.535Z,21.27
2018-12-18T07:19:02.004Z,20.40
2018-12-18T07:21:28.222Z,20.30
2018-12-18T07:23:56.436Z,20.23
2018-12-18T07:26:24.410Z,22.37
2018-12-18T07:28:52.760Z,21.80
2018-12-18T07:31:20.008Z,20.43
2018-12-18T07:33:47.236Z,19.12
2018-12-18T07:36:13.500Z,19.40
2018-12-18T07:41:35.202Z,17.30
2018-12-18T07:44:01.527Z,17.63
2018-12-18T07:46:35.007Z,19.13
2018-12-18T07:49:01.452Z,19.17
2018-12-18T07:51:27.965Z,18.83
2018-12-18T07:53:58.950Z,18.63
2018-12-18T07:56:26.415Z,20.63
2018-12-18T07:58:52.647Z,20.47
2018-12-18T08:01:19.138Z,22.87
2018-12-18T08:03:45.691Z,21.23
2018-12-18T08:06:12.114Z,20.90
2018-12-18T08:08:39.650Z,19.63
2018-12-18T08:11:05.926Z,18.70
2018-12-18T08:13:32.219Z,18.43
2018-12-18T08:15:59.219Z,18.30
2018-12-18T08:18:26.429Z,17.47
2018-12-18T08:20:53.694Z,18.60
2018-12-18T08:23:20.241Z,18.80
2018-12-18T08:25:48.634Z,21.83
2018-12-18T08:28:14.884Z,20.73
2018-12-18T08:30:45.833Z,19.47
2018-12-18T08:33:12.175Z,21.57
2018-12-18T08:35:42.208Z,19.10
2018-12-18T08:38:26.932Z,20.40
2018-12-18T08:40:53.148Z,19.73
2018-12-18T08:43:26.602Z,19.50
2018-12-18T08:45:52.760Z,21.03
2018-12-18T08:48:19.072Z,21.13
2018-12-18T08:50:47.424Z,20.57
2018-12-18T08:56:13.722Z,20.90
2018-12-18T08:58:39.827Z,22.80
2018-12-18T09:01:07.135Z,20.20
2018-12-18T09:03:33.411Z,22.60
2018-12-18T09:06:02.159Z,22.03
2018-12-18T09:08:28.318Z,21.30
2018-12-18T09:10:54.517Z,22.00
2018-12-18T09:13:20.987Z,21.90
2018-12-18T09:15:57.207Z,20.97
2018-12-18T09:18:23.466Z,20.10
2018-12-18T09:20:49.595Z,21.80
2018-12-18T09:23:19.581Z,20.37
2018-12-18T09:25:46.840Z,20.73
2018-12-18T09:28:13.272Z,19.10
2018-12-18T09:30:42.729Z,17.10
2018-12-18T09:33:09.250Z,17.10
2018-12-18T09:35:35.529Z,18.73
2018-12-18T09:38:12.885Z,16.03
2018-12-18T09:40:45.487Z,14.60
2018-12-18T09:46:17.748Z,17.23
2018-12-18T09:48:44.037Z,14.97
2018-12-18T09:51:10.207Z,15.13
2018-12-18T09:53:37.534Z,14.13
2018-12-18T09:56:05.801Z,13.97
2018-12-18T09:58:31.923Z,13.83
2018-12-18T10:00:59.773Z,13.93
2018-12-18T10:03:33.341Z,14.53
2018-12-18T10:05:56.639Z,14.33
2018-12-18T10:11:20.305Z,14.10
2018-12-18T10:13:47.521Z,12.20
2018-12-18T10:16:13.671Z,13.93
2018-12-18T10:18:41.086Z,12.77
2018-12-18T10:21:08.337Z,11.70
2018-12-18T10:23:39.942Z,12.53
2018-12-18T10:26:07.035Z,10.40
2018-12-18T10:28:33.322Z,12.70
2018-12-18T10:31:09.857Z,19.80
2018-12-18T10:36:31.224Z,10.30
2018-12-18T10:39:02.124Z,11.40
2018-12-18T10:41:36.425Z,13.13
2018-12-18T10:44:12.623Z,11.33
2018-12-18T10:46:39.082Z,11.60
2018-12-18T10:49:05.499Z,11.47
2018-12-18T10:54:26.700Z,11.67
2018-12-18T10:56:52.835Z,10.33
2018-12-18T10:59:21.173Z,13.50
2018-12-18T11:01:47.489Z,11.40
2018-12-18T11:04:13.822Z,11.50
2018-12-18T11:06:40.094Z,11.50
2018-12-18T11:09:08.431Z,11.50
2018-12-18T11:11:36.376Z,11.80
2018-12-18T11:14:04.734Z,11.50
2018-12-18T11:16:37.286Z,11.03
2018-12-18T11:19:10.019Z,10.57
2018-12-18T11:21:36.247Z,9.70
2018-12-18T11:24:02.577Z,9.90
2018-12-18T11:26:28.896Z,10.80
2018-12-18T11:28:55.052Z,9.03
2018-12-18T11:31:21.332Z,10.70
2018-12-18T11:33:48.541Z,11.00
2018-12-18T11:36:16.860Z,9.30
2018-12-18T11:38:43.263Z,8.17
2018-12-18T11:41:09.544Z,8.87
2018-12-18T11:43:35.867Z,8.63
2018-12-18T11:48:56.977Z,8.30
2018-12-18T11:51:23.517Z,12.60
2018-12-18T11:53:49.793Z,13.40
2018-12-18T11:56:15.983Z,12.67
2018-12-18T11:58:42.303Z,10.70
2018-12-18T12:01:08.730Z,9.20
2018-12-18T12:03:37.637Z,9.40
2018-12-18T12:06:04.124Z,10.87
2018-12-18T12:08:31.451Z,10.13
2018-12-18T12:10:57.761Z,11.03
2018-12-18T12:13:24.104Z,10.40
2018-12-18T12:15:50.982Z,12.47
2018-12-18T12:18:18.308Z,9.23
2018-12-18T12:20:47.436Z,9.53
2018-12-18T12:23:13.645Z,10.17
2018-12-18T12:25:41.309Z,8.43
2018-12-18T12:28:07.425Z,8.13
2018-12-18T12:30:33.787Z,8.30
2018-12-18T12:33:00.035Z,8.47
2018-12-18T12:35:26.286Z,7.53
2018-12-18T12:37:54.834Z,6.63
2018-12-18T12:40:22.175Z,7.57
2018-12-18T12:42:48.592Z,7.67
2018-12-18T12:45:15.451Z,7.97
2018-12-18T12:47:43.627Z,14.20
2018-12-18T12:50:17.488Z,9.50
2018-12-18T12:52:44.785Z,10.47
2018-12-18T12:55:10.918Z,7.57
2018-12-18T12:57:37.192Z,8.37
2018-12-18T13:00:06.396Z,8.03
2018-12-18T13:02:34.269Z,7.30
2018-12-18T13:05:02.999Z,13.03
2018-12-18T13:07:29.146Z,13.70
2018-12-18T13:09:55.544Z,8.40
2018-12-18T13:12:28.511Z,7.60
2018-12-18T13:14:54.796Z,7.90
2018-12-18T13:17:21.783Z,8.57
2018-12-18T13:19:48.131Z,9.20
2018-12-18T13:22:14.535Z,8.27
2018-12-18T13:24:40.662Z,8.60
2018-12-18T13:27:06.778Z,12.60
2018-12-18T13:29:33.239Z,11.17
2018-12-18T13:32:00.062Z,8.10
2018-12-18T13:34:34.187Z,8.40
2018-12-18T13:37:00.496Z,8.60
2018-12-18T13:39:27.612Z,7.80
2018-12-18T13:41:57.168Z,7.50
2018-12-18T13:44:24.328Z,7.83
2018-12-18T13:46:50.565Z,7.80
2018-12-18T13:49:16.929Z,8.97
2018-12-18T13:51:43.091Z,7.30
2018-12-18T13:54:09.279Z,7.20
2018-12-18T13:56:35.394Z,7.67
2018-12-18T13:59:01.705Z,8.50
2018-12-18T14:01:31.158Z,7.87
2018-12-18T14:03:57.466Z,7.47
2018-12-18T14:06:23.620Z,8.10
2018-12-18T14:08:49.907Z,7.27
2018-12-18T14:11:16.223Z,8.43
2018-12-18T14:13:43.344Z,7.80
2018-12-18T14:16:10.571Z,7.43
2018-12-18T14:18:37.100Z,6.83
2018-12-18T14:21:03.430Z,7.47
2018-12-18T14:23:30.678Z,7.17
2018-12-18T14:25:56.752Z,6.57
2018-12-18T14:28:22.908Z,7.17
2018-12-18T14:30:51.306Z,6.23
2018-12-18T14:33:17.578Z,7.40
2018-12-18T14:35:43.933Z,7.90
2018-12-18T14:38:10.197Z,9.03
2018-12-18T14:40:36.504Z,8.87
2018-12-18T14:43:03.668Z,9.13
2018-12-18T14:45:35.631Z,8.80
2018-12-18T14:48:01.710Z,7.80
2018-12-18T14:50:29.087Z,11.30
2018-12-18T14:52:55.629Z,8.20
2018-12-18T14:55:21.874Z,8.10
2018-12-18T14:57:49.217Z,7.53
2018-12-18T15:00:17.266Z,7.77
2018-12-18T15:02:43.392Z,9.47
2018-12-18T15:05:09.699Z,9.17
2018-12-18T15:07:35.899Z,7.70
2018-12-18T15:10:06.278Z,7.60
2018-12-18T15:15:33.834Z,7.27
2018-12-18T15:18:00.008Z,7.70
2018-12-18T15:20:28.354Z,8.37
2018-12-18T15:22:54.508Z,8.80
2018-12-18T15:25:20.693Z,9.13
2018-12-18T15:27:47.958Z,7.67
2018-12-18T15:30:16.121Z,7.50
2018-12-18T15:32:43.262Z,8.23
2018-12-18T15:35:10.700Z,9.20
2018-12-18T15:37:37.259Z,9.27
2018-12-18T15:40:04.839Z,8.17
2018-12-18T15:42:39.912Z,9.07
2018-12-18T15:45:08.547Z,7.53
2018-12-18T15:47:34.962Z,8.50
2018-12-18T15:50:04.843Z,10.17
2018-12-18T15:52:31.158Z,8.80
2018-12-18T15:54:58.588Z,8.20
2018-12-18T15:57:26.093Z,10.53
2018-12-18T15:59:56.166Z,9.60
2018-12-18T16:02:24.335Z,8.57
2018-12-18T16:04:51.522Z,9.30
2018-12-18T16:07:18.022Z,9.50
2018-12-18T16:09:45.378Z,8.70
2018-12-18T16:12:19.690Z,8.90
2018-12-18T16:14:59.260Z,8.20
2018-12-18T16:17:26.390Z,7.53
2018-12-18T16:19:52.821Z,9.63
2018-12-18T16:22:20.239Z,8.43
2018-12-18T16:24:46.426Z,8.30
2018-12-18T16:27:12.672Z,9.10
2018-12-18T16:29:42.923Z,9.30
2018-12-18T16:32:09.048Z,8.23
2018-12-18T16:34:37.361Z,8.30
2018-12-18T16:37:07.659Z,11.47
2018-12-18T16:39:33.943Z,8.67
2018-12-18T16:42:01.041Z,9.90
2018-12-18T16:44:27.513Z,9.47
2018-12-18T16:49:48.433Z,8.87
2018-12-18T16:52:14.731Z,10.00
2018-12-18T16:54:40.903Z,11.63
2018-12-18T16:57:13.129Z,9.77
2018-12-18T16:59:35.404Z,10.13
2018-12-18T17:02:03.791Z,10.50
2018-12-18T17:04:30.091Z,10.20
2018-12-18T17:06:56.202Z,10.83
2018-12-18T17:09:22.615Z,10.13
2018-12-18T17:11:53.022Z,10.40
2018-12-18T17:14:19.230Z,10.30
2018-12-18T17:16:47.575Z,11.10
2018-12-18T17:19:13.919Z,11.67
2018-12-18T17:21:44.828Z,11.70
2018-12-18T17:24:13.209Z,11.93
2018-12-18T17:26:40.580Z,10.97
2018-12-18T17:29:07.967Z,11.30
2018-12-18T17:31:34.213Z,10.43
2018-12-18T17:34:01.789Z,10.53
2018-12-18T17:36:28.279Z,10.23
2018-12-18T17:39:05.869Z,11.03
2018-12-18T17:41:33.228Z,10.70
2018-12-18T17:44:03.049Z,11.10
2018-12-18T17:46:29.344Z,10.80
2018-12-18T17:48:55.812Z,11.60
2018-12-18T17:51:22.095Z,11.00
2018-12-18T17:53:49.413Z,9.97
2018-12-18T17:56:15.665Z,11.37
2018-12-18T17:58:42.040Z,12.90
2018-12-18T18:01:08.782Z,11.97
2018-12-18T18:03:36.655Z,12.77
2018-12-18T18:06:04.840Z,10.70
2018-12-18T18:08:31.726Z,11.80
2018-12-18T18:10:59.364Z,10.57
2018-12-18T18:13:25.704Z,12.10
2018-12-18T18:15:53.041Z,10.03
2018-12-18T18:18:19.316Z,14.07
2018-12-18T18:20:46.887Z,10.23
2018-12-18T18:23:14.208Z,10.27
2018-12-18T18:25:40.708Z,14.70
2018-12-18T18:28:09.262Z,11.57
2018-12-18T18:30:36.618Z,13.90
2018-12-18T18:33:03.123Z,12.30
2018-12-18T18:35:30.557Z,10.77
2018-12-18T18:37:58.865Z,14.47
2018-12-18T18:40:26.460Z,12.20
2018-12-18T18:42:56.569Z,10.90
2018-12-18T18:45:23.146Z,11.13
2018-12-18T18:47:49.543Z,11.30
2018-12-18T18:50:16.517Z,9.67
2018-12-18T18:52:42.827Z,10.30
2018-12-18T18:55:10.267Z,10.33
2018-12-18T18:57:38.641Z,10.90
2018-12-18T19:00:07.805Z,10.80
2018-12-18T19:02:34.113Z,10.87
2018-12-18T19:05:00.535Z,10.40
2018-12-18T19:07:28.051Z,10.80
2018-12-18T19:09:55.429Z,10.13
2018-12-18T19:12:22.288Z,9.27
2018-12-18T19:14:49.621Z,10.50
2018-12-18T19:17:18.028Z,10.57
2018-12-18T19:19:44.308Z,10.37
2018-12-18T19:22:11.682Z,10.43
2018-12-18T19:24:38.056Z,10.27
2018-12-18T19:27:16.980Z,10.30
2018-12-18T19:29:45.523Z,9.30
2018-12-18T19:32:15.622Z,10.53
2018-12-18T19:34:45.060Z,10.43
2018-12-18T19:40:07.221Z,10.00
2018-12-18T19:42:34.801Z,13.90
2018-12-18T19:45:03.090Z,24.60
2018-12-18T19:47:29.466Z,11.00
2018-12-18T19:49:55.820Z,10.10
2018-12-18T19:52:22.212Z,9.50
2018-12-18T19:54:49.714Z,9.23
2018-12-18T19:57:17.278Z,10.53
2018-12-18T19:59:44.119Z,14.60
2018-12-18T20:02:11.075Z,14.60
2018-12-18T20:04:39.074Z,12.27
2018-12-18T20:07:06.766Z,12.63
2018-12-18T20:09:38.834Z,12.47
2018-12-18T20:12:06.285Z,12.73
2018-12-18T20:14:38.338Z,11.77
2018-12-18T20:17:06.058Z,11.00
2018-12-18T20:19:32.861Z,11.17
2018-12-18T20:22:03.338Z,12.07
2018-12-18T20:24:30.294Z,13.10
2018-12-18T20:26:57.534Z,11.90
2018-12-18T20:29:24.768Z,11.60
2018-12-18T20:31:53.025Z,11.30
2018-12-18T20:34:19.348Z,13.73
2018-12-18T20:36:45.722Z,13.20
2018-12-18T20:39:17.928Z,15.27
2018-12-18T20:41:44.391Z,13.30
2018-12-18T20:44:10.861Z,14.03
2018-12-18T20:46:41.303Z,14.90
2018-12-18T20:49:08.223Z,14.23
2018-12-18T20:51:35.760Z,15.40
2018-12-18T20:54:04.154Z,15.57
2018-12-18T20:56:31.214Z,16.30
2018-12-18T20:58:57.636Z,14.57
2018-12-18T21:01:24.211Z,16.87
2018-12-18T21:03:51.836Z,16.30
2018-12-18T21:06:19.728Z,17.60
2018-12-18T21:08:47.123Z,16.20
2018-12-18T21:11:14.303Z,19.30
2018-12-18T21:13:40.799Z,21.43
2018-12-18T21:16:13.138Z,29.30
2018-12-18T21:18:39.501Z,20.93
2018-12-18T21:21:15.439Z,19.07
2018-12-18T21:23:41.104Z,18.90
2018-12-18T21:26:07.995Z,19.53
2018-12-18T21:28:35.380Z,19.13
2018-12-18T21:31:05.596Z,18.70
2018-12-18T21:33:39.792Z,18.27
2018-12-18T21:36:06.737Z,18.00
2018-12-18T21:38:35.014Z,18.30
2018-12-18T21:41:06.195Z,19.87
2018-12-18T21:43:32.439Z,20.03
2018-12-18T21:46:27.287Z,19.10
2018-12-18T21:48:56.822Z,19.80
2018-12-18T21:51:28.343Z,19.50
2018-12-18T21:53:54.722Z,19.90
2018-12-18T21:56:32.018Z,20.43
2018-12-18T21:58:59.294Z,19.10
2018-12-18T22:01:27.400Z,20.93
2018-12-18T22:04:00.601Z,21.40
2018-12-18T22:06:43.619Z,20.13
2018-12-18T22:09:10.981Z,21.13
2018-12-18T22:11:43.441Z,19.63
2018-12-18T22:14:17.359Z,22.17
2018-12-18T22:16:45.842Z,22.13
2018-12-18T22:19:12.991Z,21.87
2018-12-18T22:21:42.804Z,21.70
2018-12-18T22:24:16.627Z,21.97
2018-12-18T22:26:44.672Z,21.77
2018-12-18T22:29:11.443Z,36.33
2018-12-18T22:31:37.696Z,22.40
2018-12-18T22:34:04.108Z,20.70
2018-12-18T22:36:32.574Z,21.50
2018-12-18T22:38:59.665Z,21.53
2018-12-18T22:41:26.756Z,22.03
2018-12-18T22:43:53.842Z,21.23
2018-12-18T22:46:20.124Z,20.13
2018-12-18T22:48:46.232Z,20.17
2018-12-18T22:51:13.533Z,22.60
2018-12-18T22:53:39.881Z,20.80
2018-12-18T22:56:07.008Z,22.73
2018-12-18T22:58:33.152Z,20.77
2018-12-18T23:01:01.839Z,20.87
2018-12-18T23:03:28.975Z,21.10
2018-12-18T23:05:59.991Z,21.00
2018-12-18T23:08:27.425Z,18.62
2018-12-18T23:10:54.037Z,19.67
2018-12-18T23:13:22.345Z,22.00
2018-12-18T23:15:48.847Z,20.60
2018-12-18T23:18:14.943Z,20.07
2018-12-18T23:20:41.058Z,20.30
2018-12-18T23:23:09.359Z,20.43
2018-12-18T23:25:35.758Z,21.53
2018-12-18T23:28:01.902Z,21.47
2018-12-18T23:30:29.059Z,21.93
2018-12-18T23:32:55.106Z,20.83
2018-12-18T23:35:21.484Z,21.23
2018-12-18T23:37:47.733Z,20.60
2018-12-18T23:40:13.963Z,19.57
2018-12-18T23:42:40.340Z,21.47
2018-12-18T23:45:06.566Z,20.80
2018-12-18T23:47:32.698Z,22.07
2018-12-18T23:49:59.938Z,21.07
2018-12-18T23:52:26.245Z,21.23
2018-12-18T23:54:52.490Z,20.87
2018-12-18T23:57:18.707Z,21.57
2018-12-18T23:59:44.905Z,21.77
